Weather at Rūdininkai Air Base [CLOSED]

Public forecast

Using degrees Celsius for public forecast. Weather courtesy of forecast.io.

Closest aviation weather report (METAR) to Rūdininkai Air Base

Closest report is Vilnius International Airport, 16.2 nm (30.1 km) NNE.

2024/02/24 03:20 (retrieved 14 minutes ago)

EYVI 240320Z 15009KT 2800 -RA BR OVC002 06/06 Q1006 TEMPO 1500 DZ BR

Closest aviation forecast (TAF) to Rūdininkai Air Base

Forecast is more than 6 hours old.

Closest forecast is Sliač Airport, 410.5 nm (760.3 km) SW.

2024/02/23 18:33 (retrieved 9 hours ago)

TAF LZSL 231630Z 2318/2406 15004KT 9999 -RA BKN020 OVC030 TEMPO 2318/2406 16010KT 6000 RA BKN010 OVC020